Time;durP1;ratioP1;P1;durP2;ratioP2;P2;SDS_P1;SDS_P2;PMS_P1;PMS_P2;Temp;Humidity;BMP_temperature;BMP_pressure;BME280_temperature;BME280_humidity;BME280_pressure;Samples;Min_cycle;Max_cycle;Signal;HPM_P1;HPM_P2
2021/10/09 00:01:33;;;;;;;113.47;50.00;;;;;;;;;;4116736;28;20862;-74
2021/10/09 00:03:34;;;;;;;114.38;56.85;;;;;;;;;;4110842;28;20067;-74
2021/10/09 00:05:35;;;;;;;135.52;60.97;;;;;;;;;;4108869;28;20070;-73
2021/10/09 00:07:37;;;;;;;132.02;55.28;;;;;;;;;;4115162;28;20077;-74
2021/10/09 00:09:38;;;;;;;125.00;56.95;;;;;;;;;;4116343;28;20086;-74
2021/10/09 00:11:39;;;;;;;114.82;51.20;;;;;;;;;;4115855;28;20034;-74
2021/10/09 00:13:40;;;;;;;119.32;54.25;;;;;;;;;;4115210;28;20105;-74
2021/10/09 00:15:42;;;;;;;131.60;59.20;;;;;;;;;;4108190;28;20050;-74
2021/10/09 00:17:43;;;;;;;115.43;55.40;;;;;;;;;;4101309;28;20102;-74
2021/10/09 00:19:44;;;;;;;100.10;49.38;;;;;;;;;;4116086;28;20046;-74
2021/10/09 00:21:46;;;;;;;136.60;60.30;;;;;;;;;;4130984;28;20117;-74
2021/10/09 00:23:48;;;;;;;114.43;54.35;;;;;;;;;;4114183;28;20027;-74
2021/10/09 00:25:49;;;;;;;106.60;53.60;;;;;;;;;;4112552;28;20142;-74
2021/10/09 00:27:51;;;;;;;109.63;52.25;;;;;;;;;;4097936;28;20042;-74
2021/10/09 00:29:52;;;;;;;123.93;58.67;;;;;;;;;;4116112;28;20047;-74
2021/10/09 00:31:53;;;;;;;118.50;55.88;;;;;;;;;;4114836;28;20041;-75
2021/10/09 00:33:54;;;;;;;133.65;62.13;;;;;;;;;;4123416;28;20632;-74
2021/10/09 00:35:55;;;;;;;150.57;61.55;;;;;;;;;;4117249;28;20042;-75
2021/10/09 00:37:56;;;;;;;133.07;61.55;;;;;;;;;;4114848;28;20062;-74
2021/10/09 00:39:59;;;;;;;111.00;55.30;;;;;;;;;;4128719;28;20053;-74
2021/10/09 00:42:00;;;;;;;128.18;59.13;;;;;;;;;;4098799;28;20126;-74
2021/10/09 00:44:09;;;;;;;106.63;50.30;;;;;;;;;;4115421;28;20185;-74
2021/10/09 00:46:10;;;;;;;116.60;55.72;;;;;;;;;;4130327;28;20089;-73
2021/10/09 00:48:11;;;;;;;123.05;55.60;;;;;;;;;;4129908;28;20121;-74
2021/10/09 00:50:13;;;;;;;120.15;52.50;;;;;;;;;;4109385;28;20066;-73
2021/10/09 00:52:15;;;;;;;146.20;59.45;;;;;;;;;;4115132;28;20039;-74
2021/10/09 00:54:18;;;;;;;138.35;60.28;;;;;;;;;;4102294;28;20170;-74
2021/10/09 00:56:20;;;;;;;123.57;54.80;;;;;;;;;;4126135;28;20066;-73
2021/10/09 00:58:23;;;;;;;129.63;53.67;;;;;;;;;;4097607;28;20043;-74
2021/10/09 01:00:24;;;;;;;101.60;51.30;;;;;;;;;;4130626;28;20065;-74
2021/10/09 01:02:25;;;;;;;140.85;60.17;;;;;;;;;;4115488;28;20042;-74
2021/10/09 01:04:28;;;;;;;135.80;60.15;;;;;;;;;;4116383;28;20058;-74
2021/10/09 01:06:29;;;;;;;139.73;59.78;;;;;;;;;;4114542;28;20031;-74
2021/10/09 01:08:30;;;;;;;148.35;64.90;;;;;;;;;;4114338;28;20467;-74
2021/10/09 01:10:32;;;;;;;154.73;62.08;;;;;;;;;;4117639;28;20493;-74
2021/10/09 01:12:33;;;;;;;142.68;56.38;;;;;;;;;;4114547;28;20102;-74
2021/10/09 01:14:34;;;;;;;122.47;51.20;;;;;;;;;;4115280;28;20043;-74
2021/10/09 01:16:35;;;;;;;126.13;53.33;;;;;;;;;;4096384;28;20502;-74
2021/10/09 01:18:36;;;;;;;121.32;57.83;;;;;;;;;;4125054;28;20045;-73
2021/10/09 01:21:01;;;;;;;135.95;52.90;;;;;;;;;;4106635;28;20659;-74
2021/10/09 01:23:03;;;;;;;133.35;57.17;;;;;;;;;;4119856;28;20616;-74
2021/10/09 01:25:06;;;;;;;128.48;52.38;;;;;;;;;;4116330;28;20045;-74
2021/10/09 01:27:07;;;;;;;142.25;59.47;;;;;;;;;;4122683;28;20163;-74
2021/10/09 01:29:10;;;;;;;157.95;58.17;;;;;;;;;;4114168;28;20051;-74
2021/10/09 01:31:11;;;;;;;124.63;51.85;;;;;;;;;;4113178;28;20554;-74
2021/10/09 01:33:12;;;;;;;141.40;59.63;;;;;;;;;;4112090;28;20039;-74
2021/10/09 01:35:13;;;;;;;133.30;61.38;;;;;;;;;;4113933;28;20212;-74
2021/10/09 01:37:14;;;;;;;140.90;57.20;;;;;;;;;;4109005;28;20062;-73
2021/10/09 01:39:16;;;;;;;148.30;57.88;;;;;;;;;;4125681;28;20552;-74
2021/10/09 01:41:17;;;;;;;135.65;61.33;;;;;;;;;;4113962;28;20042;-73
2021/10/09 01:43:20;;;;;;;163.35;65.10;;;;;;;;;;4113356;28;20061;-74
2021/10/09 01:45:21;;;;;;;156.75;64.68;;;;;;;;;;4124490;28;20033;-73
2021/10/09 01:47:22;;;;;;;147.00;57.65;;;;;;;;;;4099131;28;20107;-73
2021/10/09 01:49:23;;;;;;;130.88;58.65;;;;;;;;;;4113419;28;20038;-74
2021/10/09 01:51:26;;;;;;;154.07;65.85;;;;;;;;;;4125511;28;20068;-74
2021/10/09 01:53:27;;;;;;;157.98;63.22;;;;;;;;;;4114243;28;20050;-73
2021/10/09 01:55:28;;;;;;;149.35;60.22;;;;;;;;;;4112895;28;20482;-73
2021/10/09 01:57:30;;;;;;;136.68;56.53;;;;;;;;;;4115601;28;20058;-74
2021/10/09 01:59:31;;;;;;;148.20;63.72;;;;;;;;;;4114561;28;20045;-73
2021/10/09 02:01:33;;;;;;;159.52;63.38;;;;;;;;;;4099067;28;20475;-74
2021/10/09 02:03:34;;;;;;;151.70;58.95;;;;;;;;;;4114257;28;20046;-73
2021/10/09 02:05:35;;;;;;;134.23;56.38;;;;;;;;;;4113651;28;20060;-73
2021/10/09 02:07:36;;;;;;;147.73;60.55;;;;;;;;;;4098145;28;20129;-74
2021/10/09 02:09:37;;;;;;;150.23;60.17;;;;;;;;;;4121255;28;20035;-74
2021/10/09 02:11:42;;;;;;;150.18;63.25;;;;;;;;;;4112859;28;20137;-74
2021/10/09 02:16:02;;;;;;;147.15;57.95;;;;;;;;;;4126532;28;20037;-73
2021/10/09 02:27:06;;;;;;;153.05;60.42;;;;;;;;;;4105057;28;20066;-73
2021/10/09 02:29:07;;;;;;;133.32;55.63;;;;;;;;;;4123334;28;20034;-74
2021/10/09 02:31:08;;;;;;;147.20;58.40;;;;;;;;;;4125948;28;20520;-74
2021/10/09 02:33:10;;;;;;;156.35;64.40;;;;;;;;;;4114707;28;20039;-73
2021/10/09 02:35:11;;;;;;;148.43;59.83;;;;;;;;;;4112880;28;20035;-74
2021/10/09 02:37:12;;;;;;;158.25;62.63;;;;;;;;;;4115279;28;20049;-73
2021/10/09 02:39:14;;;;;;;151.23;59.63;;;;;;;;;;4113088;28;20046;-73
2021/10/09 02:41:15;;;;;;;136.65;56.00;;;;;;;;;;4098278;28;20486;-74
2021/10/09 02:43:16;;;;;;;140.13;58.28;;;;;;;;;;4114277;28;20147;-74
2021/10/09 02:45:17;;;;;;;119.03;50.63;;;;;;;;;;4126614;28;20529;-73
2021/10/09 02:47:18;;;;;;;166.98;59.72;;;;;;;;;;4097105;28;20105;-73
2021/10/09 02:49:19;;;;;;;164.40;64.65;;;;;;;;;;4122483;28;20493;-73
2021/10/09 02:51:21;;;;;;;154.80;57.72;;;;;;;;;;4113395;28;20451;-73
2021/10/09 02:53:22;;;;;;;142.70;57.72;;;;;;;;;;4113358;28;20043;-73
2021/10/09 02:55:23;;;;;;;140.43;58.45;;;;;;;;;;4106117;28;20077;-73
2021/10/09 02:57:25;;;;;;;132.07;56.33;;;;;;;;;;4123463;28;20047;-73
2021/10/09 02:59:26;;;;;;;136.30;54.92;;;;;;;;;;4113625;28;20394;-74
2021/10/09 03:01:27;;;;;;;173.43;59.00;;;;;;;;;;4122462;28;20133;-73
2021/10/09 03:03:28;;;;;;;159.77;61.97;;;;;;;;;;4101079;28;20054;-73
2021/10/09 03:05:29;;;;;;;157.43;59.15;;;;;;;;;;4124526;28;20093;-73
2021/10/09 03:07:31;;;;;;;152.63;57.80;;;;;;;;;;4113300;28;20397;-74
2021/10/09 03:09:32;;;;;;;162.90;61.10;;;;;;;;;;4112998;28;20046;-74
2021/10/09 03:11:33;;;;;;;145.20;54.67;;;;;;;;;;4113176;28;20049;-73
2021/10/09 03:13:34;;;;;;;158.45;57.67;;;;;;;;;;4112063;28;20617;-73
2021/10/09 03:15:35;;;;;;;153.02;60.60;;;;;;;;;;4096541;28;20098;-74
2021/10/09 03:17:37;;;;;;;140.15;57.95;;;;;;;;;;4103681;28;20569;-73
2021/10/09 03:19:38;;;;;;;152.68;60.92;;;;;;;;;;4106670;28;20055;-73
2021/10/09 03:21:39;;;;;;;154.38;59.92;;;;;;;;;;4114088;28;20063;-73
2021/10/09 03:23:40;;;;;;;145.98;60.13;;;;;;;;;;4096513;28;20039;-73
2021/10/09 03:25:41;;;;;;;144.48;59.78;;;;;;;;;;4127532;28;20506;-74
2021/10/09 03:27:43;;;;;;;140.20;54.50;;;;;;;;;;4114378;28;20482;-73
2021/10/09 03:29:44;;;;;;;141.25;57.60;;;;;;;;;;4127900;28;20778;-73
2021/10/09 03:31:45;;;;;;;159.57;61.08;;;;;;;;;;4099954;28;20074;-73
2021/10/09 03:33:46;;;;;;;147.23;54.40;;;;;;;;;;4124609;28;20492;-73
2021/10/09 03:35:47;;;;;;;175.35;62.97;;;;;;;;;;4099029;28;20050;-73
2021/10/09 03:37:48;;;;;;;156.18;59.58;;;;;;;;;;4096713;28;20074;-74
2021/10/09 03:39:51;;;;;;;167.25;57.83;;;;;;;;;;4128214;28;20069;-73
2021/10/09 03:41:57;;;;;;;127.47;50.53;;;;;;;;;;4113457;28;20039;-73
2021/10/09 03:43:58;;;;;;;139.57;53.05;;;;;;;;;;4098358;28;20050;-73
2021/10/09 03:46:13;;;;;;;181.27;57.08;;;;;;;;;;4127350;28;20047;-73
2021/10/09 03:48:42;;;;;;;139.50;55.97;;;;;;;;;;4105258;28;20043;-73
2021/10/09 03:53:04;;;;;;;153.88;58.00;;;;;;;;;;4098635;28;20046;-73
2021/10/09 03:55:08;;;;;;;162.93;59.78;;;;;;;;;;4125754;28;20046;-73
2021/10/09 03:57:09;;;;;;;137.07;53.75;;;;;;;;;;4127704;28;20113;-73
2021/10/09 03:59:10;;;;;;;131.95;55.05;;;;;;;;;;4110756;28;20506;-73
2021/10/09 04:01:12;;;;;;;123.05;47.50;;;;;;;;;;4112329;28;20640;-73
2021/10/09 04:03:13;;;;;;;120.60;47.85;;;;;;;;;;4113036;28;20046;-73
2021/10/09 04:05:14;;;;;;;128.43;47.80;;;;;;;;;;4111053;28;20102;-73
2021/10/09 04:07:15;;;;;;;129.90;52.78;;;;;;;;;;4124144;28;20074;-74
2021/10/09 04:09:16;;;;;;;181.93;61.30;;;;;;;;;;4110341;28;20035;-73
2021/10/09 04:11:17;;;;;;;152.73;55.42;;;;;;;;;;4112832;28;20055;-73
2021/10/09 04:13:19;;;;;;;161.00;60.90;;;;;;;;;;4119948;28;20502;-73
2021/10/09 04:15:20;;;;;;;191.27;57.60;;;;;;;;;;4111502;28;20502;-73
2021/10/09 04:17:21;;;;;;;169.07;62.55;;;;;;;;;;4111551;28;20035;-73
2021/10/09 04:19:22;;;;;;;156.43;54.88;;;;;;;;;;4124794;28;20104;-73
2021/10/09 04:21:23;;;;;;;154.75;53.80;;;;;;;;;;4110740;28;20486;-73
2021/10/09 04:23:24;;;;;;;128.75;51.80;;;;;;;;;;4110434;28;20038;-73
2021/10/09 04:25:25;;;;;;;125.65;50.40;;;;;;;;;;4111089;28;20545;-73
2021/10/09 04:27:27;;;;;;;132.45;56.63;;;;;;;;;;4109846;28;20046;-73
2021/10/09 04:29:28;;;;;;;148.15;58.35;;;;;;;;;;4113108;28;20397;-73
2021/10/09 04:31:29;;;;;;;171.07;62.40;;;;;;;;;;4109771;28;20182;-73
2021/10/09 04:33:30;;;;;;;179.95;61.90;;;;;;;;;;4114621;28;20709;-73
2021/10/09 04:35:31;;;;;;;150.15;55.97;;;;;;;;;;4111358;28;20528;-73
2021/10/09 04:37:32;;;;;;;135.45;51.65;;;;;;;;;;4107841;28;20043;-74
2021/10/09 04:39:33;;;;;;;134.23;49.78;;;;;;;;;;4121251;28;20070;-73
2021/10/09 04:41:35;;;;;;;120.35;45.25;;;;;;;;;;4114097;28;20039;-73
2021/10/09 04:43:36;;;;;;;186.07;56.10;;;;;;;;;;4114745;28;20513;-73
2021/10/09 04:45:37;;;;;;;150.82;56.15;;;;;;;;;;4112768;28;20050;-73
2021/10/09 04:47:38;;;;;;;157.70;56.33;;;;;;;;;;4113755;28;20154;-73
2021/10/09 04:49:39;;;;;;;143.52;49.65;;;;;;;;;;4115760;28;20804;-73
2021/10/09 04:51:40;;;;;;;149.52;50.70;;;;;;;;;;4113989;28;20047;-74
2021/10/09 04:53:42;;;;;;;130.15;46.75;;;;;;;;;;4125609;28;20113;-73
2021/10/09 04:55:43;;;;;;;145.77;53.42;;;;;;;;;;4111021;28;20146;-73
2021/10/09 04:57:44;;;;;;;146.15;50.17;;;;;;;;;;4110014;28;20046;-73
2021/10/09 04:59:46;;;;;;;160.70;54.53;;;;;;;;;;4129282;28;20038;-73
2021/10/09 05:01:47;;;;;;;139.52;53.03;;;;;;;;;;4126940;28;20081;-74
2021/10/09 05:03:48;;;;;;;152.90;53.30;;;;;;;;;;4117705;28;20043;-73
2021/10/09 05:05:49;;;;;;;135.52;48.38;;;;;;;;;;4126610;28;20870;-73
2021/10/09 05:07:50;;;;;;;136.65;51.90;;;;;;;;;;4128982;28;20050;-73
2021/10/09 05:09:52;;;;;;;131.75;53.17;;;;;;;;;;4126129;28;20030;-73
2021/10/09 05:11:53;;;;;;;139.68;48.80;;;;;;;;;;4128928;28;20398;-73
2021/10/09 05:13:54;;;;;;;132.00;47.33;;;;;;;;;;4114153;28;20121;-73
2021/10/09 05:15:56;;;;;;;126.90;45.92;;;;;;;;;;4128870;28;20050;-73
2021/10/09 05:17:57;;;;;;;112.40;44.13;;;;;;;;;;4113169;28;20074;-73
2021/10/09 05:19:58;;;;;;;154.05;49.10;;;;;;;;;;4110183;28;20409;-73
2021/10/09 05:21:59;;;;;;;154.25;53.05;;;;;;;;;;4111461;28;20553;-73
2021/10/09 05:24:00;;;;;;;155.55;56.45;;;;;;;;;;4127638;28;20034;-74
2021/10/09 05:26:01;;;;;;;147.10;53.22;;;;;;;;;;4093964;28;20885;-74
2021/10/09 05:28:08;;;;;;;175.80;57.85;;;;;;;;;;4123882;28;20045;-73
2021/10/09 05:30:12;;;;;;;137.48;53.03;;;;;;;;;;4097023;28;20248;-73
2021/10/09 05:32:20;;;;;;;156.27;55.70;;;;;;;;;;4113950;28;20122;-73
2021/10/09 05:34:21;;;;;;;135.43;50.55;;;;;;;;;;4109136;28;20073;-73
2021/10/09 05:36:23;;;;;;;139.40;52.50;;;;;;;;;;4118787;28;20042;-74
2021/10/09 05:38:24;;;;;;;134.85;47.90;;;;;;;;;;4113611;28;20039;-73
2021/10/09 05:40:25;;;;;;;128.07;50.10;;;;;;;;;;4126002;28;20041;-73
2021/10/09 05:42:26;;;;;;;124.32;46.53;;;;;;;;;;4129389;28;20441;-73
2021/10/09 05:44:27;;;;;;;136.65;45.30;;;;;;;;;;4092849;28;20079;-73
2021/10/09 05:46:28;;;;;;;132.48;44.67;;;;;;;;;;4102128;28;20058;-73
2021/10/09 05:48:33;;;;;;;157.65;50.15;;;;;;;;;;4096754;28;20087;-73
2021/10/09 05:51:02;;;;;;;129.55;47.05;;;;;;;;;;4115203;28;20434;-74
2021/10/09 05:53:28;;;;;;;132.27;46.88;;;;;;;;;;4124833;28;20061;-72
2021/10/09 05:55:29;;;;;;;136.48;50.75;;;;;;;;;;4112286;28;20043;-73
2021/10/09 05:57:42;;;;;;;121.57;48.53;;;;;;;;;;4113582;28;20034;-73
2021/10/09 06:25:57;;;;;;;127.35;48.28;;;;;;;;;;4114969;28;20091;-73
2021/10/09 06:42:22;;;;;;;241.57;78.70;;;;;;;;;;4111455;28;20422;-73
2021/10/09 06:49:42;;;;;;;280.55;89.75;;;;;;;;;;4069872;29;20121;-73
2021/10/09 07:01:02;;;;;;;297.85;96.80;;;;;;;;;;4085537;28;20110;-74
2021/10/09 07:03:03;;;;;;;351.17;107.25;;;;;;;;;;4079906;29;20130;-73
2021/10/09 07:05:06;;;;;;;389.73;117.10;;;;;;;;;;4080788;29;20035;-73
2021/10/09 07:07:09;;;;;;;445.20;127.57;;;;;;;;;;4073795;29;20044;-73
2021/10/09 07:09:10;;;;;;;391.45;123.40;;;;;;;;;;4090127;28;20043;-73
2021/10/09 07:11:14;;;;;;;415.15;124.10;;;;;;;;;;4066522;29;20396;-74
2021/10/09 07:13:16;;;;;;;383.48;123.18;;;;;;;;;;4081091;28;20047;-73
2021/10/09 07:15:18;;;;;;;379.88;123.22;;;;;;;;;;4064968;29;20048;-73
2021/10/09 07:17:19;;;;;;;333.98;113.25;;;;;;;;;;4083478;29;20047;-73
2021/10/09 07:19:21;;;;;;;332.13;110.00;;;;;;;;;;4061061;28;20043;-73
2021/10/09 07:21:22;;;;;;;291.10;103.95;;;;;;;;;;4073459;28;20075;-73
2021/10/09 07:23:23;;;;;;;264.58;98.35;;;;;;;;;;4079157;29;21839;-73
2021/10/09 07:25:24;;;;;;;254.32;95.65;;;;;;;;;;4074804;28;20452;-73
2021/10/09 07:27:26;;;;;;;233.85;92.03;;;;;;;;;;4076228;28;20043;-73
2021/10/09 07:29:27;;;;;;;245.05;88.70;;;;;;;;;;4069897;28;20558;-73
2021/10/09 07:31:28;;;;;;;219.50;89.38;;;;;;;;;;4086704;28;20126;-73
2021/10/09 07:33:29;;;;;;;212.32;83.10;;;;;;;;;;4073510;28;20043;-73
2021/10/09 07:35:31;;;;;;;239.43;86.72;;;;;;;;;;4071309;29;20068;-73
2021/10/09 07:37:32;;;;;;;215.40;87.13;;;;;;;;;;4072477;28;20477;-73
2021/10/09 07:39:33;;;;;;;211.88;84.05;;;;;;;;;;4073363;28;20040;-73
2021/10/09 07:41:35;;;;;;;209.75;91.15;;;;;;;;;;4084585;28;20031;-73
2021/10/09 07:43:36;;;;;;;211.27;85.05;;;;;;;;;;4089516;28;20055;-73
2021/10/09 07:45:37;;;;;;;220.05;87.28;;;;;;;;;;4082855;28;20032;-73
2021/10/09 07:47:38;;;;;;;209.05;88.15;;;;;;;;;;4097456;28;20074;-73
2021/10/09 07:49:40;;;;;;;216.57;92.10;;;;;;;;;;4106260;28;20505;-73
2021/10/09 07:51:41;;;;;;;213.48;88.10;;;;;;;;;;4109453;28;20040;-73
2021/10/09 07:53:42;;;;;;;216.25;91.75;;;;;;;;;;4127014;28;20077;-73
2021/10/09 07:55:44;;;;;;;220.48;89.43;;;;;;;;;;4113731;28;20057;-73
2021/10/09 07:57:45;;;;;;;218.88;89.22;;;;;;;;;;4109347;28;20439;-73
2021/10/09 07:59:46;;;;;;;206.18;89.25;;;;;;;;;;4112148;28;20058;-73
2021/10/09 08:01:47;;;;;;;206.93;87.30;;;;;;;;;;4111445;28;20035;-73
2021/10/09 08:03:48;;;;;;;198.63;88.70;;;;;;;;;;4110620;28;20564;-73
2021/10/09 08:05:52;;;;;;;201.25;85.60;;;;;;;;;;4127082;28;20065;-73
2021/10/09 08:07:53;;;;;;;201.25;87.93;;;;;;;;;;4099892;28;20082;-73
2021/10/09 08:09:54;;;;;;;195.02;86.88;;;;;;;;;;4112069;28;20071;-73
2021/10/09 08:11:55;;;;;;;208.68;89.93;;;;;;;;;;4119933;28;20502;-73
2021/10/09 08:13:56;;;;;;;211.73;89.57;;;;;;;;;;4111086;28;20058;-72
2021/10/09 08:15:58;;;;;;;194.43;88.05;;;;;;;;;;4109224;28;20494;-73
2021/10/09 08:17:59;;;;;;;182.73;84.05;;;;;;;;;;4126545;28;20046;-73
2021/10/09 08:20:00;;;;;;;189.00;88.50;;;;;;;;;;4115297;28;20042;-73
2021/10/09 08:22:06;;;;;;;204.77;89.65;;;;;;;;;;4116770;28;20046;-73
2021/10/09 08:35:35;;;;;;;158.60;80.95;;;;;;;;;;4125700;28;20473;-73
2021/10/09 08:39:56;;;;;;;164.70;77.68;;;;;;;;;;4122791;28;20449;-72
2021/10/09 08:41:57;;;;;;;153.02;76.60;;;;;;;;;;4127069;28;20514;-72
2021/10/09 08:43:58;;;;;;;149.35;75.32;;;;;;;;;;4098626;28;20074;-72
2021/10/09 08:45:59;;;;;;;146.40;76.15;;;;;;;;;;4114601;28;20054;-72
2021/10/09 08:48:00;;;;;;;149.13;75.43;;;;;;;;;;4118604;28;20558;-73
2021/10/09 08:50:03;;;;;;;135.07;72.10;;;;;;;;;;4098949;28;20047;-74
2021/10/09 08:52:04;;;;;;;135.55;71.78;;;;;;;;;;4098792;28;20047;-73
2021/10/09 08:54:08;;;;;;;130.00;70.55;;;;;;;;;;4113649;28;20471;-73
2021/10/09 08:56:15;;;;;;;129.23;69.15;;;;;;;;;;4104591;28;20038;-73
2021/10/09 08:58:30;;;;;;;134.32;68.60;;;;;;;;;;4107332;28;20054;-73
2021/10/09 09:03:16;;;;;;;115.25;63.55;;;;;;;;;;4114823;28;20041;-73
2021/10/09 09:05:55;;;;;;;116.72;63.22;;;;;;;;;;4099429;28;20034;-72
2021/10/09 09:08:56;;;;;;;117.18;65.68;;;;;;;;;;4111145;28;20356;-72
2021/10/09 09:35:32;;;;;;;88.93;53.90;;;;;;;;;;4128122;28;20519;-73
2021/10/09 09:39:43;;;;;;;83.63;54.47;;;;;;;;;;4121286;28;20063;-74
2021/10/09 09:41:51;;;;;;;82.03;55.03;;;;;;;;;;4126910;28;20038;-74
2021/10/09 09:43:54;;;;;;;76.55;53.55;;;;;;;;;;4130291;28;20558;-74
2021/10/09 09:46:10;;;;;;;66.85;47.45;;;;;;;;;;4128413;28;20157;-74
2021/10/09 09:48:11;;;;;;;75.45;50.80;;;;;;;;;;4114458;28;20390;-73
2021/10/09 09:50:13;;;;;;;68.00;49.50;;;;;;;;;;4113332;28;20043;-74
2021/10/09 09:52:14;;;;;;;61.53;46.97;;;;;;;;;;4123228;28;20042;-73
2021/10/09 09:54:16;;;;;;;60.30;44.88;;;;;;;;;;4102998;28;20035;-73
2021/10/09 09:56:19;;;;;;;61.15;46.33;;;;;;;;;;4112728;28;20046;-74
2021/10/09 09:58:23;;;;;;;54.63;43.35;;;;;;;;;;4113249;28;20102;-74
2021/10/09 10:00:24;;;;;;;52.22;42.78;;;;;;;;;;4128161;28;20130;-73
2021/10/09 10:02:28;;;;;;;51.78;41.28;;;;;;;;;;4113132;28;20093;-73
2021/10/09 10:04:31;;;;;;;56.63;41.38;;;;;;;;;;4113928;28;20528;-74
2021/10/09 10:06:32;;;;;;;49.03;38.88;;;;;;;;;;4114342;28;20034;-74
2021/10/09 10:08:33;;;;;;;49.83;37.55;;;;;;;;;;4102608;28;20495;-74
2021/10/09 10:10:35;;;;;;;48.35;37.38;;;;;;;;;;4109633;28;20050;-73
2021/10/09 10:12:37;;;;;;;49.35;38.40;;;;;;;;;;4101136;28;20106;-73
2021/10/09 10:14:40;;;;;;;40.20;34.97;;;;;;;;;;4123826;28;20506;-73
2021/10/09 10:16:45;;;;;;;51.17;37.15;;;;;;;;;;4111442;28;20034;-72
2021/10/09 10:18:49;;;;;;;47.45;36.88;;;;;;;;;;4112763;28;20167;-72
2021/10/09 10:20:51;;;;;;;45.40;36.05;;;;;;;;;;4123598;28;20118;-72
2021/10/09 10:22:54;;;;;;;39.50;33.65;;;;;;;;;;4125858;28;20486;-73
2021/10/09 10:24:55;;;;;;;44.33;34.67;;;;;;;;;;4100373;28;20118;-73
2021/10/09 10:27:29;;;;;;;45.38;34.25;;;;;;;;;;4115324;28;20423;-72
2021/10/09 10:29:30;;;;;;;41.42;32.83;;;;;;;;;;4120150;28;20038;-73
2021/10/09 10:31:35;;;;;;;41.63;33.10;;;;;;;;;;4120775;28;20474;-73
2021/10/09 10:33:38;;;;;;;38.58;31.48;;;;;;;;;;4112613;28;20042;-72
2021/10/09 10:35:39;;;;;;;42.30;32.63;;;;;;;;;;4127147;28;20069;-73
2021/10/09 10:37:40;;;;;;;43.92;31.95;;;;;;;;;;4113727;28;20420;-72
2021/10/09 10:39:41;;;;;;;37.30;28.42;;;;;;;;;;4127550;28;20575;-73
2021/10/09 10:41:51;;;;;;;38.10;30.92;;;;;;;;;;4113476;28;20389;-74
2021/10/09 10:43:55;;;;;;;38.05;29.45;;;;;;;;;;4111962;28;20502;-74
2021/10/09 10:45:56;;;;;;;38.58;29.58;;;;;;;;;;4125369;28;20070;-74
2021/10/09 10:48:04;;;;;;;32.97;29.38;;;;;;;;;;4108038;28;20062;-74
2021/10/09 10:50:19;;;;;;;35.10;30.10;;;;;;;;;;4114469;28;20061;-74
2021/10/09 10:53:03;;;;;;;32.42;26.58;;;;;;;;;;4102356;28;20101;-74
2021/10/09 10:55:07;;;;;;;36.08;27.08;;;;;;;;;;4113772;28;20138;-74
2021/10/09 10:57:13;;;;;;;33.80;27.73;;;;;;;;;;4114043;28;20058;-73
2021/10/09 11:02:13;;;;;;;34.30;26.98;;;;;;;;;;4128432;28;20528;-74
2021/10/09 11:04:14;;;;;;;40.38;26.75;;;;;;;;;;4126421;28;20532;-71
2021/10/09 11:06:20;;;;;;;28.80;25.05;;;;;;;;;;4124976;28;20038;-74
2021/10/09 11:08:21;;;;;;;43.28;28.08;;;;;;;;;;4114627;28;20033;-74
2021/10/09 11:10:24;;;;;;;32.85;27.80;;;;;;;;;;4125073;28;20469;-72
2021/10/09 11:12:29;;;;;;;30.80;27.45;;;;;;;;;;4111794;28;20070;-73
2021/10/09 11:14:34;;;;;;;31.50;27.60;;;;;;;;;;4118470;28;20443;-73
2021/10/09 11:16:38;;;;;;;33.40;26.40;;;;;;;;;;4125236;28;20441;-73
2021/10/09 11:18:56;;;;;;;36.90;26.60;;;;;;;;;;4122696;28;20038;-73
2021/10/09 11:21:05;;;;;;;29.77;26.50;;;;;;;;;;4126207;28;20042;-74
2021/10/09 11:23:11;;;;;;;35.42;27.15;;;;;;;;;;4112166;28;20433;-71
2021/10/09 11:25:30;;;;;;;32.22;26.88;;;;;;;;;;4124372;28;20487;-73
2021/10/09 11:27:41;;;;;;;31.85;25.48;;;;;;;;;;4095273;28;20054;-73
2021/10/09 11:30:06;;;;;;;35.13;27.83;;;;;;;;;;4108622;28;20059;-73
2021/10/09 11:32:14;;;;;;;28.50;25.45;;;;;;;;;;4122920;28;20118;-74
2021/10/09 11:34:15;;;;;;;34.78;24.52;;;;;;;;;;4107574;28;20133;-73
2021/10/09 11:36:16;;;;;;;31.27;26.35;;;;;;;;;;4110835;28;20109;-73
2021/10/09 11:38:33;;;;;;;30.55;26.17;;;;;;;;;;4111463;28;20594;-74
2021/10/09 11:40:46;;;;;;;29.67;26.20;;;;;;;;;;4122740;28;20125;-71
2021/10/09 11:42:55;;;;;;;29.08;26.10;;;;;;;;;;4106474;28;20427;-73
2021/10/09 11:45:09;;;;;;;32.75;25.65;;;;;;;;;;4120540;28;20043;-74
2021/10/09 11:54:20;;;;;;;29.33;25.67;;;;;;;;;;4115775;28;20050;-73
2021/10/09 11:56:21;;;;;;;28.02;24.90;;;;;;;;;;4114490;28;20058;-73
2021/10/09 11:58:23;;;;;;;30.20;26.45;;;;;;;;;;4115652;28;20085;-74
2021/10/09 12:00:31;;;;;;;27.75;23.38;;;;;;;;;;4113267;28;20529;-73
2021/10/09 12:02:35;;;;;;;33.92;22.90;;;;;;;;;;4107925;28;20401;-72
2021/10/09 12:04:36;;;;;;;24.88;22.05;;;;;;;;;;4125852;28;20042;-73
2021/10/09 12:06:47;;;;;;;30.85;21.55;;;;;;;;;;4123066;28;20036;-72
2021/10/09 12:08:50;;;;;;;27.58;21.88;;;;;;;;;;4109150;28;20155;-73
2021/10/09 12:11:19;;;;;;;28.48;22.95;;;;;;;;;;4115952;28;20413;-73
2021/10/09 12:13:20;;;;;;;28.80;22.77;;;;;;;;;;4124717;28;20529;-73
2021/10/09 12:15:24;;;;;;;30.75;22.75;;;;;;;;;;4100254;28;20186;-72
2021/10/09 12:17:39;;;;;;;25.23;21.45;;;;;;;;;;4112971;28;21407;-73
2021/10/09 12:19:40;;;;;;;35.00;23.77;;;;;;;;;;4129759;28;20210;-72
2021/10/09 12:21:52;;;;;;;29.70;22.92;;;;;;;;;;4107713;28;20547;-72
2021/10/09 12:23:54;;;;;;;27.73;21.23;;;;;;;;;;4109746;28;20035;-73
2021/10/09 12:26:14;;;;;;;24.35;20.83;;;;;;;;;;4114614;28;20074;-72
2021/10/09 12:28:15;;;;;;;24.35;19.92;;;;;;;;;;4103644;28;20066;-72
2021/10/09 12:30:16;;;;;;;30.42;21.02;;;;;;;;;;4123050;28;20541;-72
2021/10/09 12:32:19;;;;;;;27.35;20.98;;;;;;;;;;4116585;28;20495;-72
2021/10/09 12:34:36;;;;;;;34.00;22.77;;;;;;;;;;4124903;28;20046;-73
2021/10/09 12:38:39;;;;;;;23.40;19.27;;;;;;;;;;4124791;28;20035;-73
2021/10/09 12:40:47;;;;;;;26.77;20.63;;;;;;;;;;4111296;28;20118;-73
2021/10/09 12:42:54;;;;;;;27.23;19.98;;;;;;;;;;4115762;28;20042;-74
2021/10/09 12:44:55;;;;;;;22.73;19.48;;;;;;;;;;4113345;28;20039;-73
2021/10/09 12:46:56;;;;;;;26.92;20.13;;;;;;;;;;4112383;28;20053;-71
2021/10/09 12:48:58;;;;;;;27.60;20.83;;;;;;;;;;4131497;28;20038;-71
2021/10/09 12:50:59;;;;;;;24.35;21.75;;;;;;;;;;4114614;28;20146;-73
2021/10/09 12:53:00;;;;;;;30.27;21.17;;;;;;;;;;4114047;28;20517;-73
2021/10/09 12:55:03;;;;;;;22.27;19.92;;;;;;;;;;4126799;28;20065;-73
2021/10/09 12:57:08;;;;;;;27.10;20.27;;;;;;;;;;4098245;28;20061;-73
2021/10/09 12:59:09;;;;;;;25.63;22.60;;;;;;;;;;4110527;28;20039;-73
2021/10/09 13:01:10;;;;;;;27.20;22.33;;;;;;;;;;4092634;28;20039;-72
2021/10/09 13:03:11;;;;;;;25.88;22.42;;;;;;;;;;4115449;28;20062;-71
2021/10/09 13:05:12;;;;;;;26.90;21.92;;;;;;;;;;4112561;28;20038;-71
2021/10/09 13:07:13;;;;;;;25.75;21.10;;;;;;;;;;4129572;28;20034;-70
2021/10/09 13:09:16;;;;;;;22.15;19.65;;;;;;;;;;4115061;28;20071;-74
2021/10/09 13:11:26;;;;;;;28.48;20.40;;;;;;;;;;4115939;28;20517;-71
2021/10/09 13:13:27;;;;;;;28.65;21.60;;;;;;;;;;4115486;28;20069;-72
2021/10/09 13:15:28;;;;;;;32.97;23.30;;;;;;;;;;4114432;28;20470;-73
2021/10/09 13:17:29;;;;;;;24.60;20.50;;;;;;;;;;4114382;28;20034;-75
2021/10/09 13:19:31;;;;;;;24.55;22.02;;;;;;;;;;4111687;28;20165;-75
2021/10/09 13:21:32;;;;;;;31.30;22.50;;;;;;;;;;4116405;28;20502;-76
2021/10/09 13:23:33;;;;;;;25.33;22.42;;;;;;;;;;4113904;28;20502;-72
2021/10/09 13:25:35;;;;;;;30.65;20.95;;;;;;;;;;4113266;28;20093;-75
2021/10/09 13:27:36;;;;;;;23.08;20.60;;;;;;;;;;4130158;28;20544;-74
2021/10/09 13:29:37;;;;;;;20.90;18.70;;;;;;;;;;4106597;28;20039;-72
2021/10/09 13:31:38;;;;;;;24.30;20.27;;;;;;;;;;4107289;28;20459;-73
2021/10/09 13:33:39;;;;;;;26.88;20.15;;;;;;;;;;4121690;28;20038;-73
2021/10/09 13:35:40;;;;;;;25.45;17.63;;;;;;;;;;4109806;28;20046;-73
2021/10/09 13:37:52;;;;;;;26.60;20.50;;;;;;;;;;4113925;28;20577;-73
2021/10/09 13:39:56;;;;;;;22.63;19.52;;;;;;;;;;4129891;28;20070;-73
2021/10/09 13:41:58;;;;;;;21.52;19.02;;;;;;;;;;4106347;28;20043;-73
2021/10/09 13:43:59;;;;;;;23.77;18.77;;;;;;;;;;4125875;28;20356;-73
2021/10/09 13:46:00;;;;;;;28.08;19.95;;;;;;;;;;4114391;28;20539;-74
2021/10/09 13:48:01;;;;;;;25.85;21.95;;;;;;;;;;4098054;28;20968;-74
2021/10/09 13:50:04;;;;;;;31.10;20.25;;;;;;;;;;4109936;28;20446;-72
2021/10/09 13:52:07;;;;;;;29.63;20.00;;;;;;;;;;4125673;28;20038;-72
2021/10/09 13:54:08;;;;;;;24.88;22.25;;;;;;;;;;4106001;28;20027;-72
2021/10/09 13:56:10;;;;;;;26.73;21.05;;;;;;;;;;4110822;28;20035;-72